Time;durP1;ratioP1;P1;durP2;ratioP2;P2;SDS_P1;SDS_P2;PMS_P1;PMS_P2;Temp;Humidity;BMP_temperature;BMP_pressure;BME280_temperature;BME280_humidity;BME280_pressure;Samples;Min_cycle;Max_cycle;Signal;HPM_P1;HPM_P2
2022/05/23 00:01:23;;;;;;;5.93;3.00;;;;;;;;;;5019060;28;20187;-71
2022/05/23 00:03:49;;;;;;;4.22;2.80;;;;;;;;;;5021795;28;20976;-72
2022/05/23 00:06:16;;;;;;;8.93;3.65;;;;;;;;;;5017939;28;22463;-72
2022/05/23 00:08:41;;;;;;;5.97;3.20;;;;;;;;;;5029712;28;20707;-72
2022/05/23 00:11:07;;;;;;;5.95;3.10;;;;;;;;;;5026383;28;20190;-72
2022/05/23 00:13:32;;;;;;;8.20;2.97;;;;;;;;;;5031821;28;20229;-72
2022/05/23 00:15:57;;;;;;;7.50;2.92;;;;;;;;;;5028117;28;20194;-72
2022/05/23 00:18:22;;;;;;;4.40;2.80;;;;;;;;;;5028725;28;20182;-72
2022/05/23 00:20:48;;;;;;;6.80;3.28;;;;;;;;;;5029516;28;20178;-72
2022/05/23 00:23:13;;;;;;;4.68;2.95;;;;;;;;;;5029766;28;20205;-72
2022/05/23 00:25:38;;;;;;;5.83;2.87;;;;;;;;;;5026229;28;20700;-72
2022/05/23 00:28:03;;;;;;;4.63;2.75;;;;;;;;;;5028288;28;20427;-73
2022/05/23 00:30:28;;;;;;;5.72;3.05;;;;;;;;;;5027982;28;20193;-73
2022/05/23 00:35:39;;;;;;;6.13;3.13;;;;;;;;;;5018111;28;20231;-72
2022/05/23 00:38:04;;;;;;;4.93;2.92;;;;;;;;;;5008331;28;20178;-72
2022/05/23 00:40:29;;;;;;;4.78;2.83;;;;;;;;;;5006878;28;20181;-72
2022/05/23 00:43:14;;;;;;;6.32;2.90;;;;;;;;;;5021137;28;20585;-72
2022/05/23 00:45:44;;;;;;;6.85;3.17;;;;;;;;;;5010560;28;20512;-72
2022/05/23 00:48:10;;;;;;;5.35;3.03;;;;;;;;;;5029344;28;20178;-73
2022/05/23 00:50:35;;;;;;;7.85;3.10;;;;;;;;;;5028371;28;20247;-72
2022/05/23 00:53:01;;;;;;;5.50;3.00;;;;;;;;;;5025724;28;20308;-73
2022/05/23 00:55:29;;;;;;;4.93;2.58;;;;;;;;;;5010282;28;20730;-72
2022/05/23 00:58:04;;;;;;;6.80;2.75;;;;;;;;;;5006044;28;20198;-73
2022/05/23 01:00:30;;;;;;;3.92;2.80;;;;;;;;;;5011452;28;20592;-72
2022/05/23 01:02:57;;;;;;;5.15;2.83;;;;;;;;;;5027255;28;20194;-73
2022/05/23 01:05:23;;;;;;;6.97;2.75;;;;;;;;;;5026173;28;20206;-72
2022/05/23 01:07:48;;;;;;;7.03;3.00;;;;;;;;;;5027521;28;20186;-72
2022/05/23 01:10:13;;;;;;;5.93;3.47;;;;;;;;;;5030036;28;20228;-72
2022/05/23 01:12:39;;;;;;;3.90;2.85;;;;;;;;;;5007618;28;20444;-72
2022/05/23 01:15:14;;;;;;;8.07;3.10;;;;;;;;;;5028358;28;20224;-74
2022/05/23 01:17:39;;;;;;;4.65;2.83;;;;;;;;;;5027583;28;20190;-71
2022/05/23 01:20:05;;;;;;;5.07;2.77;;;;;;;;;;5030352;28;20185;-71
2022/05/23 01:22:34;;;;;;;5.20;2.70;;;;;;;;;;5028910;28;20834;-71
2022/05/23 01:24:59;;;;;;;7.78;3.63;;;;;;;;;;5027504;28;20217;-71
2022/05/23 01:27:27;;;;;;;5.32;2.70;;;;;;;;;;5024207;28;20182;-75
2022/05/23 01:29:52;;;;;;;6.38;2.70;;;;;;;;;;5023318;28;20921;-73
2022/05/23 01:32:17;;;;;;;4.75;2.75;;;;;;;;;;5019279;28;20248;-72
2022/05/23 01:34:44;;;;;;;4.07;2.80;;;;;;;;;;5019716;28;20190;-72
2022/05/23 01:37:09;;;;;;;4.03;2.75;;;;;;;;;;5016286;28;21230;-72
2022/05/23 01:39:34;;;;;;;5.18;2.90;;;;;;;;;;5019814;28;20289;-72
2022/05/23 01:42:00;;;;;;;5.72;2.92;;;;;;;;;;5021845;28;20202;-72
2022/05/23 01:44:25;;;;;;;5.00;2.87;;;;;;;;;;5025670;28;20656;-72
2022/05/23 01:46:50;;;;;;;4.93;2.50;;;;;;;;;;5023264;28;20466;-72
2022/05/23 01:49:15;;;;;;;5.43;4.30;;;;;;;;;;5027907;28;20174;-72
2022/05/23 01:51:40;;;;;;;7.53;3.47;;;;;;;;;;5028178;28;20435;-72
2022/05/23 01:54:06;;;;;;;5.27;2.80;;;;;;;;;;5027031;28;20430;-72
2022/05/23 01:56:31;;;;;;;5.03;2.75;;;;;;;;;;5024300;28;20448;-72
2022/05/23 02:01:40;;;;;;;5.75;3.28;;;;;;;;;;5028671;28;20460;-72
2022/05/23 02:04:05;;;;;;;6.72;2.72;;;;;;;;;;5026758;28;20179;-72
2022/05/23 02:06:31;;;;;;;5.25;3.20;;;;;;;;;;5026659;28;20672;-73
2022/05/23 02:08:56;;;;;;;6.60;3.37;;;;;;;;;;5028069;28;20200;-72
2022/05/23 02:11:21;;;;;;;3.87;2.97;;;;;;;;;;5026416;28;20485;-72
2022/05/23 02:13:46;;;;;;;8.38;3.08;;;;;;;;;;5025861;28;20956;-73
2022/05/23 02:16:12;;;;;;;6.82;2.85;;;;;;;;;;5014316;28;20190;-72
2022/05/23 02:18:37;;;;;;;5.97;3.00;;;;;;;;;;5029943;28;20178;-72
2022/05/23 02:21:02;;;;;;;7.95;3.35;;;;;;;;;;5031176;28;20256;-72
2022/05/23 02:23:27;;;;;;;5.40;2.97;;;;;;;;;;5014568;28;20213;-72
2022/05/23 02:25:53;;;;;;;8.00;3.10;;;;;;;;;;5031913;28;20206;-72
2022/05/23 02:28:18;;;;;;;6.32;3.80;;;;;;;;;;5029069;28;20523;-72
2022/05/23 02:30:45;;;;;;;5.63;2.85;;;;;;;;;;5031629;28;20208;-72
2022/05/23 02:33:10;;;;;;;5.78;3.08;;;;;;;;;;5029440;28;20238;-72
2022/05/23 02:35:36;;;;;;;7.55;3.17;;;;;;;;;;5029608;28;20206;-72
2022/05/23 02:38:01;;;;;;;4.97;2.85;;;;;;;;;;5029582;28;20644;-73
2022/05/23 02:40:26;;;;;;;7.25;3.35;;;;;;;;;;5029438;28;20196;-72
2022/05/23 02:42:51;;;;;;;7.55;3.50;;;;;;;;;;5020672;28;20611;-72
2022/05/23 02:45:17;;;;;;;5.85;3.55;;;;;;;;;;5030834;28;20206;-72
2022/05/23 02:47:43;;;;;;;5.80;3.00;;;;;;;;;;5031063;28;20563;-72
2022/05/23 02:50:09;;;;;;;5.13;3.10;;;;;;;;;;5031834;28;20201;-72
2022/05/23 02:52:34;;;;;;;4.68;3.30;;;;;;;;;;5013730;28;20237;-72
2022/05/23 02:54:59;;;;;;;6.55;3.17;;;;;;;;;;5024550;28;20189;-72
2022/05/23 02:57:24;;;;;;;7.55;4.05;;;;;;;;;;5032542;28;20236;-72
2022/05/23 02:59:50;;;;;;;4.13;3.20;;;;;;;;;;5031323;28;20194;-72
2022/05/23 03:04:59;;;;;;;7.65;3.63;;;;;;;;;;5027912;28;20248;-72
2022/05/23 03:07:24;;;;;;;3.53;3.00;;;;;;;;;;5030552;28;20219;-72
2022/05/23 03:09:49;;;;;;;5.50;3.17;;;;;;;;;;5030419;28;20560;-73
2022/05/23 03:12:14;;;;;;;8.85;3.58;;;;;;;;;;5013600;28;20477;-73
2022/05/23 03:14:39;;;;;;;4.55;3.58;;;;;;;;;;5021735;28;20183;-73
2022/05/23 03:17:05;;;;;;;4.10;3.00;;;;;;;;;;5027007;28;20179;-72
2022/05/23 03:19:30;;;;;;;6.03;3.58;;;;;;;;;;5032735;28;20186;-73
2022/05/23 03:27:24;;;;;;;8.23;4.55;;;;;;;;;;5023028;28;20184;-71
2022/05/23 03:29:50;;;;;;;4.32;3.40;;;;;;;;;;5031878;28;20178;-73
2022/05/23 03:32:15;;;;;;;5.65;3.60;;;;;;;;;;5029578;28;20209;-71
2022/05/23 03:34:40;;;;;;;9.47;3.47;;;;;;;;;;5031711;28;20182;-71
2022/05/23 03:37:06;;;;;;;6.28;3.10;;;;;;;;;;5028966;28;20783;-71
2022/05/23 03:39:31;;;;;;;6.13;3.88;;;;;;;;;;5030307;28;20664;-72
2022/05/23 03:41:56;;;;;;;6.28;3.67;;;;;;;;;;5025811;28;20197;-71
2022/05/23 03:44:21;;;;;;;6.10;3.80;;;;;;;;;;5028620;28;20182;-72
2022/05/23 03:46:46;;;;;;;5.28;3.80;;;;;;;;;;5031679;28;20320;-72
2022/05/23 03:49:11;;;;;;;5.05;3.72;;;;;;;;;;5028932;28;20196;-72
2022/05/23 03:51:40;;;;;;;4.37;3.60;;;;;;;;;;5030390;28;20175;-72
2022/05/23 03:54:05;;;;;;;7.22;3.42;;;;;;;;;;5025029;28;20438;-72
2022/05/23 03:56:30;;;;;;;6.57;3.88;;;;;;;;;;5031356;28;20269;-72
2022/05/23 03:58:55;;;;;;;4.72;3.70;;;;;;;;;;5023762;28;20246;-73
2022/05/23 04:01:22;;;;;;;6.65;4.03;;;;;;;;;;5031306;28;20182;-73
2022/05/23 04:03:47;;;;;;;5.45;3.72;;;;;;;;;;5028937;28;20174;-71
2022/05/23 04:06:12;;;;;;;6.53;4.95;;;;;;;;;;5030911;28;20210;-71
2022/05/23 04:08:38;;;;;;;6.07;4.03;;;;;;;;;;5028230;28;20190;-73
2022/05/23 04:11:03;;;;;;;8.40;4.65;;;;;;;;;;5035219;28;20208;-71
2022/05/23 04:13:29;;;;;;;5.75;3.80;;;;;;;;;;5029194;28;20194;-71
2022/05/23 04:15:54;;;;;;;5.93;4.30;;;;;;;;;;5032271;28;20186;-71
2022/05/23 04:18:19;;;;;;;5.10;3.90;;;;;;;;;;5032053;28;20190;-72
2022/05/23 04:20:45;;;;;;;7.40;4.82;;;;;;;;;;5030738;28;20200;-72
2022/05/23 04:23:10;;;;;;;6.20;4.53;;;;;;;;;;5033262;28;20199;-72
2022/05/23 04:25:42;;;;;;;7.20;3.88;;;;;;;;;;5030310;28;20210;-72
2022/05/23 04:28:08;;;;;;;13.65;5.70;;;;;;;;;;5029891;28;20185;-72
2022/05/23 04:30:33;;;;;;;7.45;4.43;;;;;;;;;;5031175;28;20179;-72
2022/05/23 04:35:42;;;;;;;6.93;4.60;;;;;;;;;;5031941;28;20190;-72
2022/05/23 04:38:07;;;;;;;9.88;4.90;;;;;;;;;;5026899;28;20174;-72
2022/05/23 04:40:33;;;;;;;8.65;4.70;;;;;;;;;;5030071;28;20187;-72
2022/05/23 04:42:58;;;;;;;7.78;4.63;;;;;;;;;;5020076;28;20245;-72
2022/05/23 04:45:23;;;;;;;5.68;4.53;;;;;;;;;;5026036;28;20236;-72
2022/05/23 04:50:35;;;;;;;8.32;5.35;;;;;;;;;;5029201;28;20205;-71
2022/05/23 04:53:01;;;;;;;8.75;5.30;;;;;;;;;;5029099;28;20220;-73
2022/05/23 04:55:26;;;;;;;7.43;4.97;;;;;;;;;;5029568;28;20616;-74
2022/05/23 04:57:52;;;;;;;7.13;5.13;;;;;;;;;;5027790;28;20174;-73
2022/05/23 05:00:20;;;;;;;10.02;5.18;;;;;;;;;;5020146;28;20667;-74
2022/05/23 05:02:48;;;;;;;7.25;5.00;;;;;;;;;;5019847;28;20218;-73
2022/05/23 05:05:13;;;;;;;9.48;5.40;;;;;;;;;;5025286;28;20220;-74
2022/05/23 05:07:39;;;;;;;8.63;4.93;;;;;;;;;;5022295;28;20179;-73
2022/05/23 05:10:04;;;;;;;8.20;4.57;;;;;;;;;;5026387;28;20181;-73
2022/05/23 05:12:30;;;;;;;7.68;6.18;;;;;;;;;;5024222;28;20285;-73
2022/05/23 05:14:55;;;;;;;7.15;5.05;;;;;;;;;;5031724;28;20186;-74
2022/05/23 05:17:21;;;;;;;4.90;4.43;;;;;;;;;;5030920;28;20261;-73
2022/05/23 05:19:46;;;;;;;7.47;4.88;;;;;;;;;;5027234;28;20320;-74
2022/05/23 05:22:12;;;;;;;7.43;5.37;;;;;;;;;;5024472;28;20208;-73
2022/05/23 05:24:37;;;;;;;7.75;5.28;;;;;;;;;;5031518;28;20436;-73
2022/05/23 05:27:02;;;;;;;6.30;4.37;;;;;;;;;;5014507;28;20206;-73
2022/05/23 05:29:28;;;;;;;6.65;4.70;;;;;;;;;;5026826;28;20420;-73
2022/05/23 05:32:05;;;;;;;6.32;4.65;;;;;;;;;;5030473;28;20205;-73
2022/05/23 05:34:42;;;;;;;9.63;5.45;;;;;;;;;;5018876;28;20270;-73
2022/05/23 05:37:12;;;;;;;8.63;5.43;;;;;;;;;;5002373;28;20170;-73
2022/05/23 05:39:38;;;;;;;7.38;5.05;;;;;;;;;;5021740;28;20174;-73
2022/05/23 05:42:21;;;;;;;8.13;4.85;;;;;;;;;;5019195;28;20194;-74
2022/05/23 05:44:52;;;;;;;9.35;5.63;;;;;;;;;;5019783;28;20217;-74
2022/05/23 05:47:19;;;;;;;8.45;5.65;;;;;;;;;;5019309;28;20186;-73
2022/05/23 05:49:46;;;;;;;6.50;5.57;;;;;;;;;;5019247;28;20546;-73
2022/05/23 05:52:13;;;;;;;9.57;4.97;;;;;;;;;;5024062;28;20263;-73
2022/05/23 05:54:40;;;;;;;10.38;5.38;;;;;;;;;;5021288;28;20182;-75
2022/05/23 05:57:05;;;;;;;9.30;6.45;;;;;;;;;;5021873;28;20190;-74
2022/05/23 05:59:31;;;;;;;8.30;5.70;;;;;;;;;;5025180;28;20178;-73
2022/05/23 06:01:56;;;;;;;8.15;5.00;;;;;;;;;;5034031;28;20194;-75
2022/05/23 06:04:21;;;;;;;9.45;5.60;;;;;;;;;;5031814;28;20189;-72
2022/05/23 06:12:14;;;;;;;8.38;5.10;;;;;;;;;;5023730;28;20247;-73
2022/05/23 06:14:40;;;;;;;10.10;6.28;;;;;;;;;;5001281;28;20277;-74
2022/05/23 06:17:07;;;;;;;8.90;5.95;;;;;;;;;;5019963;28;20175;-72
2022/05/23 06:19:43;;;;;;;6.57;5.63;;;;;;;;;;5024188;28;20735;-72
2022/05/23 06:22:09;;;;;;;8.15;5.43;;;;;;;;;;5021235;28;20283;-72
2022/05/23 06:24:34;;;;;;;8.20;5.68;;;;;;;;;;5022145;28;20202;-72
2022/05/23 06:27:00;;;;;;;7.13;5.65;;;;;;;;;;5023022;28;20200;-73
2022/05/23 06:29:26;;;;;;;7.88;5.63;;;;;;;;;;5021961;28;20194;-73
2022/05/23 06:31:51;;;;;;;7.63;5.77;;;;;;;;;;5023578;28;20194;-73
2022/05/23 06:34:16;;;;;;;9.73;6.20;;;;;;;;;;5006975;28;21680;-73
2022/05/23 06:36:41;;;;;;;6.88;5.20;;;;;;;;;;5021940;28;20190;-72
2022/05/23 06:39:06;;;;;;;6.60;6.00;;;;;;;;;;5027945;28;20230;-73
2022/05/23 06:41:31;;;;;;;6.63;5.30;;;;;;;;;;5019923;28;20932;-73
2022/05/23 06:43:58;;;;;;;6.83;6.03;;;;;;;;;;5027493;28;20201;-72
2022/05/23 06:46:23;;;;;;;7.47;6.07;;;;;;;;;;5032084;28;20471;-73
2022/05/23 06:48:48;;;;;;;9.95;5.40;;;;;;;;;;5012952;28;20224;-72
2022/05/23 06:51:14;;;;;;;7.97;6.40;;;;;;;;;;5030541;28;20723;-73
2022/05/23 06:53:40;;;;;;;6.43;5.22;;;;;;;;;;5013120;28;20525;-72
2022/05/23 06:56:05;;;;;;;8.95;5.85;;;;;;;;;;5029069;28;20178;-73
2022/05/23 06:58:30;;;;;;;13.90;6.90;;;;;;;;;;5011381;28;20261;-73
2022/05/23 07:00:55;;;;;;;9.05;5.85;;;;;;;;;;5021898;28;21159;-72
2022/05/23 07:03:21;;;;;;;10.57;6.50;;;;;;;;;;5025816;28;20202;-72
2022/05/23 07:14:00;;;;;;;6.32;5.60;;;;;;;;;;5027623;28;20386;-72
2022/05/23 07:16:26;;;;;;;10.73;6.53;;;;;;;;;;5031895;28;20727;-72
2022/05/23 07:18:51;;;;;;;7.60;5.63;;;;;;;;;;5020726;28;20729;-73
2022/05/23 07:21:17;;;;;;;8.15;6.80;;;;;;;;;;5025566;28;20182;-73
2022/05/23 07:23:43;;;;;;;10.45;6.47;;;;;;;;;;5028803;28;20207;-73
2022/05/23 07:26:09;;;;;;;8.63;6.40;;;;;;;;;;5029488;28;20213;-73
2022/05/23 07:28:35;;;;;;;8.10;5.90;;;;;;;;;;5029600;28;20517;-73
2022/05/23 07:31:00;;;;;;;7.40;6.35;;;;;;;;;;5029896;28;20283;-73
2022/05/23 07:33:25;;;;;;;10.98;6.95;;;;;;;;;;5031068;28;20209;-73
2022/05/23 07:35:54;;;;;;;12.38;6.63;;;;;;;;;;5031243;28;20174;-73
2022/05/23 07:38:19;;;;;;;7.97;6.43;;;;;;;;;;5025606;28;20644;-73
2022/05/23 07:40:48;;;;;;;9.82;6.30;;;;;;;;;;5028416;28;20767;-72
2022/05/23 07:43:13;;;;;;;11.48;6.97;;;;;;;;;;5020553;28;20206;-73
2022/05/23 07:45:39;;;;;;;7.63;6.13;;;;;;;;;;5022440;28;20267;-73
2022/05/23 07:48:04;;;;;;;9.52;6.75;;;;;;;;;;5019468;28;20721;-73
2022/05/23 07:50:29;;;;;;;9.50;6.32;;;;;;;;;;5022626;28;20311;-73
2022/05/23 08:01:07;;;;;;;7.97;6.38;;;;;;;;;;5024126;28;20181;-73
2022/05/23 08:03:32;;;;;;;8.05;6.05;;;;;;;;;;5022949;28;20210;-73
2022/05/23 08:05:57;;;;;;;10.07;6.33;;;;;;;;;;5027642;28;20199;-73
2022/05/23 08:08:22;;;;;;;10.98;6.68;;;;;;;;;;5022085;28;20875;-73
2022/05/23 08:10:47;;;;;;;7.67;6.10;;;;;;;;;;5021191;28;20620;-72
2022/05/23 08:13:13;;;;;;;10.53;7.70;;;;;;;;;;5031769;28;20426;-73
2022/05/23 08:15:38;;;;;;;10.70;6.85;;;;;;;;;;5029865;28;20435;-73
2022/05/23 08:18:05;;;;;;;9.60;6.72;;;;;;;;;;5030840;28;20182;-73
2022/05/23 08:20:30;;;;;;;7.97;7.10;;;;;;;;;;5030698;28;20272;-73
2022/05/23 08:22:57;;;;;;;8.70;6.30;;;;;;;;;;5026850;28;20293;-72
2022/05/23 08:25:23;;;;;;;10.88;6.18;;;;;;;;;;5028308;28;20202;-73
2022/05/23 08:27:48;;;;;;;9.40;7.32;;;;;;;;;;5025252;28;20185;-73
2022/05/23 08:30:13;;;;;;;10.20;7.20;;;;;;;;;;5029190;28;20182;-73
2022/05/23 08:32:38;;;;;;;8.23;6.78;;;;;;;;;;5014495;28;20209;-72
2022/05/23 08:35:04;;;;;;;9.60;7.50;;;;;;;;;;5002063;28;20183;-72
2022/05/23 08:37:29;;;;;;;9.30;7.05;;;;;;;;;;5006841;28;20187;-73
2022/05/23 08:39:54;;;;;;;7.45;6.50;;;;;;;;;;5010764;28;20221;-73
2022/05/23 08:42:28;;;;;;;8.32;6.32;;;;;;;;;;4991063;28;20228;-73
2022/05/23 08:45:12;;;;;;;9.70;7.00;;;;;;;;;;5007749;28;20232;-72
2022/05/23 08:47:53;;;;;;;6.95;6.25;;;;;;;;;;5003894;28;20175;-73
2022/05/23 08:50:28;;;;;;;7.63;6.93;;;;;;;;;;5004554;28;20181;-73
2022/05/23 08:52:59;;;;;;;10.85;7.47;;;;;;;;;;5004249;28;20214;-71
2022/05/23 08:55:46;;;;;;;10.02;7.55;;;;;;;;;;5004290;28;20213;-71
2022/05/23 08:58:21;;;;;;;11.90;7.13;;;;;;;;;;5003690;28;20224;-71
2022/05/23 09:00:50;;;;;;;7.00;6.30;;;;;;;;;;5005905;28;20240;-72
2022/05/23 09:03:34;;;;;;;8.43;6.80;;;;;;;;;;5004790;28;20271;-72
2022/05/23 09:06:06;;;;;;;7.22;6.45;;;;;;;;;;5004661;28;20194;-72
2022/05/23 09:08:33;;;;;;;7.88;7.07;;;;;;;;;;5006041;28;20728;-73
2022/05/23 09:11:01;;;;;;;9.23;7.40;;;;;;;;;;5011634;28;20202;-72
2022/05/23 09:13:27;;;;;;;12.32;7.25;;;;;;;;;;5007527;28;20198;-72
2022/05/23 09:15:53;;;;;;;7.18;6.47;;;;;;;;;;5010587;28;20186;-72
2022/05/23 09:18:23;;;;;;;11.13;7.32;;;;;;;;;;5007482;28;20193;-73
2022/05/23 09:20:54;;;;;;;8.60;7.60;;;;;;;;;;4991682;28;20181;-72
2022/05/23 09:23:28;;;;;;;9.05;7.85;;;;;;;;;;5006820;28;20198;-73
2022/05/23 09:25:54;;;;;;;11.13;8.18;;;;;;;;;;5009987;28;20300;-73
2022/05/23 09:28:28;;;;;;;10.30;7.85;;;;;;;;;;5008946;28;20286;-73
2022/05/23 09:30:56;;;;;;;8.48;7.68;;;;;;;;;;4993211;28;20296;-73
2022/05/23 09:33:22;;;;;;;8.52;7.50;;;;;;;;;;5011836;28;20198;-72
2022/05/23 09:35:55;;;;;;;10.48;6.93;;;;;;;;;;4994301;28;20185;-72
2022/05/23 09:38:22;;;;;;;9.40;7.55;;;;;;;;;;5013657;28;20871;-72
2022/05/23 09:40:48;;;;;;;9.95;8.35;;;;;;;;;;5013625;28;20174;-72
2022/05/23 09:49:15;;;;;;;8.85;7.95;;;;;;;;;;5025204;28;20710;-72
2022/05/23 09:51:57;;;;;;;12.77;8.30;;;;;;;;;;5010700;28;20182;-72
2022/05/23 09:54:25;;;;;;;11.65;9.23;;;;;;;;;;5012392;28;20331;-73
2022/05/23 09:56:51;;;;;;;10.45;8.38;;;;;;;;;;5010296;28;20175;-72
2022/05/23 09:59:36;;;;;;;12.38;9.02;;;;;;;;;;5012630;28;20186;-72
2022/05/23 10:02:20;;;;;;;10.40;8.57;;;;;;;;;;5004537;28;20202;-72
2022/05/23 10:04:45;;;;;;;10.80;8.35;;;;;;;;;;5015897;28;20174;-73
2022/05/23 10:07:28;;;;;;;10.57;8.85;;;;;;;;;;5013224;28;20666;-73
2022/05/23 10:09:55;;;;;;;9.90;8.90;;;;;;;;;;5014371;28;20186;-73
2022/05/23 10:12:21;;;;;;;12.52;7.30;;;;;;;;;;5013535;28;20202;-72
2022/05/23 10:14:47;;;;;;;10.93;8.15;;;;;;;;;;5012953;28;20185;-73
2022/05/23 10:17:32;;;;;;;9.10;7.60;;;;;;;;;;5011058;28;20183;-72
2022/05/23 10:20:16;;;;;;;10.82;7.57;;;;;;;;;;5010579;28;20194;-72
2022/05/23 10:22:53;;;;;;;10.65;8.00;;;;;;;;;;4992040;28;20234;-72
2022/05/23 10:25:19;;;;;;;10.05;7.95;;;;;;;;;;5011623;28;20194;-73
2022/05/23 10:27:52;;;;;;;8.45;7.28;;;;;;;;;;4988197;28;20573;-73
2022/05/23 10:30:19;;;;;;;11.52;7.90;;;;;;;;;;5006475;28;20178;-72
2022/05/23 10:32:48;;;;;;;8.82;7.60;;;;;;;;;;5010515;28;20559;-72
2022/05/23 10:35:23;;;;;;;10.45;7.70;;;;;;;;;;5006931;28;20186;-72
2022/05/23 10:37:50;;;;;;;9.52;7.68;;;;;;;;;;5007998;28;20186;-73
2022/05/23 10:43:19;;;;;;;10.13;8.13;;;;;;;;;;5007097;28;20233;-73
2022/05/23 10:45:51;;;;;;;9.13;7.60;;;;;;;;;;5013128;28;20932;-73
2022/05/23 10:48:16;;;;;;;10.02;8.82;;;;;;;;;;5033022;28;20612;-72
2022/05/23 10:50:41;;;;;;;10.25;8.82;;;;;;;;;;4997130;28;20178;-72
2022/05/23 10:53:07;;;;;;;13.07;7.75;;;;;;;;;;5005879;28;20215;-72
2022/05/23 10:55:36;;;;;;;9.77;8.20;;;;;;;;;;5009485;28;20633;-71
2022/05/23 10:58:04;;;;;;;13.45;8.10;;;;;;;;;;5005182;28;20313;-72
2022/05/23 11:00:59;;;;;;;11.23;7.28;;;;;;;;;;5013636;28;20225;-72
2022/05/23 11:03:42;;;;;;;8.35;7.18;;;;;;;;;;4994480;28;20662;-72
2022/05/23 11:06:22;;;;;;;9.38;7.50;;;;;;;;;;5010538;28;20711;-72
2022/05/23 11:08:57;;;;;;;9.30;7.78;;;;;;;;;;5006198;28;20190;-72
2022/05/23 11:11:32;;;;;;;9.57;7.00;;;;;;;;;;5011933;28;20669;-72
2022/05/23 11:14:16;;;;;;;9.38;7.30;;;;;;;;;;5012642;28;20170;-72
2022/05/23 11:17:10;;;;;;;7.07;5.88;;;;;;;;;;5011886;28;20232;-73
2022/05/23 11:19:35;;;;;;;8.30;5.55;;;;;;;;;;4983240;28;20668;-72
2022/05/23 11:22:04;;;;;;;8.73;6.10;;;;;;;;;;5005718;28;20687;-73
2022/05/23 11:24:53;;;;;;;4.90;4.13;;;;;;;;;;5007380;28;20521;-73
2022/05/23 11:35:33;;;;;;;5.38;4.88;;;;;;;;;;5010672;28;20205;-72
2022/05/23 11:38:01;;;;;;;6.05;4.93;;;;;;;;;;5008647;28;21233;-73
2022/05/23 11:40:26;;;;;;;8.15;6.47;;;;;;;;;;5011283;28;20309;-73
2022/05/23 11:42:55;;;;;;;7.63;6.82;;;;;;;;;;5009846;28;20633;-74
2022/05/23 11:48:25;;;;;;;7.25;6.55;;;;;;;;;;5006174;28;20190;-73
2022/05/23 11:50:51;;;;;;;8.05;5.80;;;;;;;;;;5008984;28;20906;-72
2022/05/23 11:53:22;;;;;;;7.10;6.32;;;;;;;;;;5004666;28;20280;-72
2022/05/23 11:55:50;;;;;;;10.38;6.45;;;;;;;;;;5008557;28;20649;-73
2022/05/23 11:58:22;;;;;;;10.32;7.30;;;;;;;;;;5007458;28;20186;-73
2022/05/23 12:00:59;;;;;;;7.82;6.97;;;;;;;;;;5011581;28;20182;-73
2022/05/23 12:03:24;;;;;;;8.18;7.38;;;;;;;;;;5008610;28;20283;-72
2022/05/23 12:06:09;;;;;;;7.40;6.67;;;;;;;;;;5009321;28;20297;-73
2022/05/23 12:08:37;;;;;;;8.93;8.02;;;;;;;;;;5007122;28;20185;-72
2022/05/23 12:11:02;;;;;;;11.57;7.90;;;;;;;;;;4999002;28;20174;-72
2022/05/23 12:13:30;;;;;;;7.75;6.75;;;;;;;;;;5014452;28;20214;-73
2022/05/23 12:15:58;;;;;;;10.13;7.32;;;;;;;;;;5008723;28;21696;-72
2022/05/23 12:18:23;;;;;;;9.82;8.57;;;;;;;;;;5008486;28;20271;-73
2022/05/23 12:20:55;;;;;;;11.65;8.07;;;;;;;;;;5009246;28;20186;-73
2022/05/23 12:23:29;;;;;;;11.20;9.43;;;;;;;;;;5008793;28;20261;-73
2022/05/23 12:26:24;;;;;;;9.90;8.90;;;;;;;;;;5009187;28;20205;-73
2022/05/23 12:28:55;;;;;;;8.70;7.90;;;;;;;;;;4984814;28;20238;-73
2022/05/23 12:31:31;;;;;;;9.85;8.50;;;;;;;;;;5008735;28;20190;-72
2022/05/23 12:34:02;;;;;;;9.60;8.55;;;;;;;;;;5008485;28;20185;-72
2022/05/23 12:36:29;;;;;;;9.18;7.78;;;;;;;;;;5008036;28;20273;-72
2022/05/23 12:39:03;;;;;;;9.85;8.90;;;;;;;;;;4994882;28;20182;-73
2022/05/23 12:41:47;;;;;;;10.23;8.57;;;;;;;;;;5009497;28;20185;-73
2022/05/23 12:44:30;;;;;;;13.43;9.85;;;;;;;;;;5005321;28;20178;-73
2022/05/23 12:47:07;;;;;;;10.05;9.05;;;;;;;;;;5008594;28;20609;-73
2022/05/23 12:49:39;;;;;;;9.63;8.63;;;;;;;;;;5006552;28;20718;-72
2022/05/23 12:52:23;;;;;;;11.13;9.88;;;;;;;;;;5007992;28;20203;-72
2022/05/23 12:55:14;;;;;;;10.52;9.38;;;;;;;;;;5011167;28;20216;-72
2022/05/23 12:57:42;;;;;;;9.45;8.45;;;;;;;;;;5005656;28;20261;-72
2022/05/23 13:00:14;;;;;;;11.35;9.25;;;;;;;;;;5008242;28;20178;-72
2022/05/23 13:02:45;;;;;;;10.50;9.38;;;;;;;;;;5000929;28;20213;-73
2022/05/23 13:05:13;;;;;;;9.35;8.05;;;;;;;;;;5004681;28;20644;-73
2022/05/23 13:07:49;;;;;;;10.50;9.50;;;;;;;;;;5007472;28;20182;-73
2022/05/23 13:10:27;;;;;;;12.00;8.95;;;;;;;;;;5012060;28;21973;-73
2022/05/23 13:13:11;;;;;;;10.82;9.27;;;;;;;;;;5014506;28;20199;-72
2022/05/23 13:15:36;;;;;;;12.93;9.48;;;;;;;;;;5007225;28;20182;-72
2022/05/23 13:23:34;;;;;;;19.25;11.30;;;;;;;;;;5007909;28;20308;-73
2022/05/23 13:26:05;;;;;;;15.20;10.32;;;;;;;;;;5010546;28;20206;-73
2022/05/23 13:28:31;;;;;;;11.35;10.13;;;;;;;;;;5007195;28;20628;-73
2022/05/23 13:30:56;;;;;;;12.90;10.73;;;;;;;;;;5007823;28;20281;-73
2022/05/23 13:33:30;;;;;;;15.43;11.38;;;;;;;;;;5005878;28;22056;-73
2022/05/23 13:36:00;;;;;;;12.00;10.60;;;;;;;;;;5004401;28;20186;-72
2022/05/23 13:38:29;;;;;;;15.13;11.18;;;;;;;;;;5008681;28;20183;-72
2022/05/23 13:40:56;;;;;;;12.65;11.35;;;;;;;;;;5006046;28;20644;-72
2022/05/23 13:43:23;;;;;;;15.63;11.77;;;;;;;;;;5006792;28;21855;-72
2022/05/23 13:45:59;;;;;;;13.70;12.27;;;;;;;;;;4990683;28;20199;-72
2022/05/23 13:48:48;;;;;;;15.27;13.32;;;;;;;;;;5006273;28;20581;-72
2022/05/23 13:51:16;;;;;;;15.05;12.77;;;;;;;;;;4997353;28;20337;-72
2022/05/23 13:54:02;;;;;;;15.73;14.27;;;;;;;;;;5008878;28;20219;-73
2022/05/23 13:56:27;;;;;;;15.57;13.90;;;;;;;;;;5010932;28;20202;-73
2022/05/23 13:58:55;;;;;;;17.23;14.68;;;;;;;;;;5005075;28;20359;-72
2022/05/23 14:01:33;;;;;;;19.20;15.40;;;;;;;;;;5008966;28;20313;-73
2022/05/23 14:04:05;;;;;;;16.13;14.30;;;;;;;;;;5006959;28;20656;-72
2022/05/23 14:06:34;;;;;;;21.73;15.45;;;;;;;;;;5004482;28;20198;-73
2022/05/23 14:09:01;;;;;;;19.67;15.20;;;;;;;;;;5009922;28;20196;-73
2022/05/23 14:11:37;;;;;;;15.32;13.05;;;;;;;;;;5007753;28;20178;-73
2022/05/23 14:14:36;;;;;;;14.25;12.63;;;;;;;;;;5014562;28;20189;-73
2022/05/23 14:17:08;;;;;;;19.90;14.07;;;;;;;;;;4958315;28;20200;-73
2022/05/23 14:19:43;;;;;;;18.85;14.70;;;;;;;;;;5014931;28;20213;-73
2022/05/23 14:22:13;;;;;;;19.33;15.13;;;;;;;;;;5010782;28;20209;-73
2022/05/23 14:24:45;;;;;;;18.52;15.57;;;;;;;;;;5007563;28;20661;-73
2022/05/23 14:27:12;;;;;;;25.15;16.52;;;;;;;;;;5013590;28;20719;-72
2022/05/23 14:29:38;;;;;;;18.98;16.05;;;;;;;;;;5005942;28;20179;-73
2022/05/23 14:32:09;;;;;;;20.25;16.40;;;;;;;;;;5007488;28;20205;-73
2022/05/23 14:34:35;;;;;;;20.13;16.42;;;;;;;;;;5007953;28;20197;-72
2022/05/23 14:37:04;;;;;;;18.50;16.60;;;;;;;;;;5014249;28;20221;-73
2022/05/23 14:39:31;;;;;;;18.23;15.10;;;;;;;;;;5017994;28;20200;-72
2022/05/23 14:42:16;;;;;;;19.15;16.73;;;;;;;;;;5016072;28;20719;-72
2022/05/23 14:44:42;;;;;;;18.52;14.77;;;;;;;;;;5004883;28;20179;-72
2022/05/23 14:47:19;;;;;;;16.65;14.25;;;;;;;;;;5005855;28;20224;-73
2022/05/23 14:50:03;;;;;;;16.88;14.02;;;;;;;;;;5009908;28;21009;-73
2022/05/23 14:52:35;;;;;;;16.73;15.02;;;;;;;;;;5011633;28;20236;-73
2022/05/23 14:55:21;;;;;;;15.48;13.80;;;;;;;;;;5006714;28;20198;-73
2022/05/23 15:00:55;;;;;;;19.38;14.40;;;;;;;;;;4946090;28;20208;-73
2022/05/23 15:03:22;;;;;;;17.27;14.45;;;;;;;;;;4950160;28;20804;-73
2022/05/23 15:05:50;;;;;;;15.15;13.55;;;;;;;;;;4975792;28;20730;-74
2022/05/23 15:08:17;;;;;;;15.93;14.40;;;;;;;;;;5011222;28;20206;-74
2022/05/23 15:10:42;;;;;;;19.10;15.13;;;;;;;;;;5007362;28;20186;-72
2022/05/23 15:13:08;;;;;;;17.02;15.00;;;;;;;;;;5012496;28;20209;-73
2022/05/23 15:15:34;;;;;;;18.58;16.40;;;;;;;;;;5008599;28;20716;-73
2022/05/23 15:17:59;;;;;;;20.07;17.10;;;;;;;;;;5013376;28;20212;-73
2022/05/23 15:20:24;;;;;;;19.37;16.93;;;;;;;;;;5006713;28;20424;-73
2022/05/23 15:22:50;;;;;;;24.95;18.98;;;;;;;;;;5008743;28;20911;-72
2022/05/23 15:25:15;;;;;;;21.77;18.58;;;;;;;;;;5007683;28;20237;-72
2022/05/23 15:27:41;;;;;;;22.60;18.50;;;;;;;;;;5006844;28;20198;-72
2022/05/23 15:30:12;;;;;;;21.83;17.90;;;;;;;;;;5005576;28;20182;-72
2022/05/23 15:32:38;;;;;;;19.83;17.70;;;;;;;;;;5007801;28;20209;-72
2022/05/23 15:35:04;;;;;;;22.08;17.67;;;;;;;;;;4987358;28;20186;-72
2022/05/23 15:37:30;;;;;;;20.52;16.90;;;;;;;;;;5006798;28;20590;-72
2022/05/23 15:39:55;;;;;;;20.27;16.30;;;;;;;;;;5007690;28;20683;-72
2022/05/23 15:42:24;;;;;;;20.23;16.98;;;;;;;;;;5005870;28;20206;-72
2022/05/23 15:44:50;;;;;;;19.77;17.63;;;;;;;;;;5008187;28;20174;-72
2022/05/23 15:47:17;;;;;;;20.48;17.50;;;;;;;;;;5011619;28;20308;-72
2022/05/23 15:49:44;;;;;;;19.48;17.30;;;;;;;;;;5007173;28;20339;-72
2022/05/23 15:52:09;;;;;;;21.40;19.27;;;;;;;;;;5008647;28;20212;-72
2022/05/23 15:54:35;;;;;;;23.48;20.35;;;;;;;;;;5008517;28;20182;-72